EPWREPPO

Guest
Details From EPWR - STRACHOWICE
To EPPO - LAWICA
Flight Number -
Tags generated
Created
Modified
Stats Distance 79 nm / 147 km
Max Altitude 4,900 ft / 1,494 m
Waypoints 3
Social Downloads 2
Likes 0
Share VATSIM

Download

Looking for another format? Having issues loading an existing format? Contact us
Advertisement - Login to hide

Notes

Basic altitude profile: - Ascent Rate: 2500ft/min - Ascent Speed: 250kts - Cruise Altitude: 35000ft - Cruise Speed: 420kts - Descent Rate: 1500ft/min - Descent Speed: 250kts Options: - Use NATs: yes - Use PACOTS: yes - Use low airways: yes - Use high airways: yes

Route

EPWR LUGUR EPPO

ID Type Via Altitude Latitude Longitude Leg Dist Tot Dist Heading (true) Name
O EPWR APT - 0 ft / 0 m 51.10388˚ 16.88189˚ - 0 nm - STRACHOWICE
LUGUR FIX - 4,900 ft / 1,494 m 52.04139˚ 16.78333˚ 56 nm 56 nm 356° / 356° -
O EPPO APT - 0 ft / 0 m 52.42157˚ 16.82355˚ 22 nm 79 nm 4° / 4° LAWICA

Altitude Profile

Advertisement - Login to hide

EPWR

Details ICAO EPWR (WRO)
Name STRACHOWICE
Region Poland
Timezone Europe/Warsaw (UTC+1.0)
Stats Elevation 404 ft / 123 m (AMSL)
Location 51.103882° 16.881892°
Runways 1
Magnetic Variation 4.613° E

METAR

EPWR 140430Z 18013KT 9999 BKN027 04/M01 Q0993

Decode

TAF

TAF EPWR 132330Z 1400/1424 18012KT CAVOK TEMPO 1400/1407 18015G25KT PROB40 TEMPO 1402/1407 18018G35KT 4000 RA RASN BKN014 BECMG 1407/1409 24015G25KT PROB40 TEMPO 1407/1416 24018G35KT 4000 SHRA SHGS BKN020CB

Decode

Departure Runways

ID Width Length Bearing (true) Bearing (mag) Surface Threshold Offset Overrun Length
12 197 ft / 60 m 8,192 ft / 2,497 m 115.99° 111.38° Concrete 0 ft / 0 m 0 ft / 0 m
30 197 ft / 60 m 8,192 ft / 2,497 m 296.01° 291.40° Concrete 0 ft / 0 m 0 ft / 0 m

EPPO

Details ICAO EPPO (POZ)
Name LAWICA
Region Poland
Timezone Europe/Warsaw (UTC+1.0)
Stats Elevation 308 ft / 94 m (AMSL)
Location 52.421566° 16.823549°
Runways 1
Magnetic Variation 4.735° E

METAR

EPPO 140430Z 19013KT 3400 SN OVC018 01/M01 Q0990 R10/15//95

Decode

TAF

TAF EPPO 132330Z 1400/1424 18010KT CAVOK PROB40 TEMPO 1400/1403 16015G25KT -SN BECMG 1402/1405 BKN013 PROB40 TEMPO 1404/1407 18018G35KT 2000 SNRA RA BKN004 OVC013 PROB30 TEMPO 1407/1412 21015G25KT SHRA BKN015CB BECMG 1412/1414 24015G30KT PROB40 TEMPO 1412/1421 4000 SHRA BKN015CB

Decode

Destination Runways

ID Width Length Bearing (true) Bearing (mag) Surface Threshold Offset Overrun Length
11 164 ft / 50 m 8,153 ft / 2,485 m 107.57° 102.83° Asphalt 0 ft / 0 m 0 ft / 0 m
29 164 ft / 50 m 8,153 ft / 2,485 m 287.59° 282.85° Asphalt 0 ft / 0 m 0 ft / 0 m

Approach Navaids

Runway Type Ident Frequency Range Bearing (true) Bearing (mag) Slope Elevation
29 Localiser POZ 110.30 MHz 18 nm / 33 km 287.57° 282.83° - 308 ft / 94 m (AMSL)
29 Glidescope POZ 110.30 MHz 10 nm / 19 km 287.58° 282.84° 3.00° 308 ft / 94 m (AMSL)
29 DME POZ 110.30 MHz 18 nm / 33 km - - - 331 ft / 101 m (AMSL)

Popular Alternatives